createdAt,value
2017-10-13T00:01:34.671Z,32.73
2017-10-13T00:04:02.354Z,29.83
2017-10-13T00:06:30.025Z,31.50
2017-10-13T00:08:57.691Z,31.20
2017-10-13T00:11:25.451Z,26.27
2017-10-13T00:13:53.129Z,27.80
2017-10-13T00:16:20.855Z,30.03
2017-10-13T00:18:48.475Z,42.07
2017-10-13T00:21:16.083Z,34.30
2017-10-13T00:23:43.743Z,32.03
2017-10-13T00:26:11.347Z,35.07
2017-10-13T00:28:39.023Z,35.70
2017-10-13T00:31:06.800Z,35.20
2017-10-13T00:33:34.413Z,47.23
2017-10-13T00:36:02.035Z,36.63
2017-10-13T00:38:29.694Z,39.50
2017-10-13T00:40:57.303Z,38.50
2017-10-13T00:43:24.934Z,40.33
2017-10-13T00:45:52.607Z,44.63
2017-10-13T00:48:20.335Z,36.60
2017-10-13T00:50:47.997Z,35.53
2017-10-13T00:53:15.727Z,41.57
2017-10-13T00:55:43.427Z,37.00
2017-10-13T00:58:11.064Z,38.87
2017-10-13T01:00:38.745Z,38.50
2017-10-13T01:03:06.358Z,37.70
2017-10-13T01:05:34.038Z,34.97
2017-10-13T01:08:01.756Z,39.77
2017-10-13T01:10:29.371Z,33.70
2017-10-13T01:12:56.988Z,38.27
2017-10-13T01:15:24.679Z,35.30
2017-10-13T01:17:52.348Z,36.03
2017-10-13T01:20:19.981Z,36.63
2017-10-13T01:22:47.672Z,31.80
2017-10-13T01:25:15.283Z,29.83
2017-10-13T01:27:42.961Z,32.70
2017-10-13T01:30:10.631Z,31.10
2017-10-13T01:32:38.268Z,31.30
2017-10-13T01:35:05.943Z,32.80
2017-10-13T01:37:33.608Z,32.27
2017-10-13T01:40:01.237Z,30.03
2017-10-13T01:42:28.908Z,30.20
2017-10-13T01:44:56.571Z,31.17
2017-10-13T01:47:24.180Z,32.00
2017-10-13T01:49:51.817Z,30.03
2017-10-13T01:52:19.498Z,36.87
2017-10-13T01:54:47.109Z,24.77
2017-10-13T01:57:14.786Z,37.63
2017-10-13T01:59:42.470Z,28.73
2017-10-13T02:02:10.111Z,28.37
2017-10-13T02:04:37.721Z,26.53
2017-10-13T02:07:05.379Z,19.63
2017-10-13T02:09:32.996Z,24.77
2017-10-13T02:12:00.656Z,24.07
2017-10-13T02:14:28.328Z,19.83
2017-10-13T02:16:55.934Z,34.67
2017-10-13T02:19:23.605Z,27.93
2017-10-13T02:21:51.263Z,25.20
2017-10-13T02:24:18.943Z,41.43
2017-10-13T02:26:46.546Z,30.73
2017-10-13T02:29:14.208Z,24.70
2017-10-13T02:31:41.827Z,27.93
2017-10-13T02:34:09.439Z,32.93
2017-10-13T02:36:37.204Z,40.13
2017-10-13T02:39:04.980Z,48.23
2017-10-13T02:41:32.590Z,43.87
2017-10-13T02:44:00.276Z,55.70
2017-10-13T02:46:27.904Z,24.33
2017-10-13T02:48:55.515Z,38.83
2017-10-13T02:51:23.184Z,32.57
2017-10-13T02:53:50.787Z,43.87
2017-10-13T02:56:18.408Z,42.17
2017-10-13T02:58:46.143Z,33.97
2017-10-13T03:01:13.759Z,31.27
2017-10-13T03:03:41.371Z,40.30
2017-10-13T03:06:09.050Z,21.77
2017-10-13T03:08:36.656Z,28.93
2017-10-13T03:11:04.266Z,23.67
2017-10-13T03:13:31.980Z,27.13
2017-10-13T03:15:59.664Z,27.30
2017-10-13T03:18:27.331Z,24.70
2017-10-13T03:20:54.992Z,30.40
2017-10-13T03:23:22.603Z,30.00
2017-10-13T03:25:50.275Z,34.20
2017-10-13T03:28:17.998Z,37.00
2017-10-13T03:30:45.669Z,48.03
2017-10-13T03:33:13.274Z,47.80
2017-10-13T03:35:41.952Z,53.27
2017-10-13T03:38:09.556Z,54.60
2017-10-13T03:40:37.249Z,52.23
2017-10-13T03:43:04.924Z,46.27
2017-10-13T03:45:32.607Z,83.90
2017-10-13T03:48:00.223Z,70.00
2017-10-13T03:50:27.949Z,83.23
2017-10-13T03:52:55.578Z,57.90
2017-10-13T03:55:23.175Z,63.77
2017-10-13T03:57:50.847Z,45.07
2017-10-13T04:00:18.574Z,75.07
2017-10-13T04:02:46.184Z,44.83
2017-10-13T04:05:13.899Z,42.60
2017-10-13T04:07:41.498Z,59.13
2017-10-13T04:10:09.160Z,46.97
2017-10-13T04:12:36.876Z,51.50
2017-10-13T04:15:04.483Z,29.97
2017-10-13T04:17:32.144Z,62.77
2017-10-13T04:19:59.800Z,58.37
2017-10-13T04:22:27.407Z,47.43
2017-10-13T04:24:55.073Z,42.83
2017-10-13T04:27:22.731Z,34.70
2017-10-13T04:29:50.335Z,41.00
2017-10-13T04:32:18.004Z,44.90
2017-10-13T04:34:45.719Z,24.80
2017-10-13T04:37:13.319Z,40.87
2017-10-13T04:39:41.055Z,35.67
2017-10-13T04:42:08.705Z,43.23
2017-10-13T04:44:36.373Z,37.87
2017-10-13T04:47:03.975Z,42.47
2017-10-13T04:49:31.639Z,49.43
2017-10-13T04:51:59.315Z,23.10
2017-10-13T04:54:27.028Z,36.40
2017-10-13T04:56:54.695Z,22.20
2017-10-13T04:59:22.315Z,25.65
2017-10-13T05:01:49.906Z,22.70
2017-10-13T05:04:17.576Z,21.23
2017-10-13T05:06:45.223Z,19.80
2017-10-13T05:09:12.831Z,76.97
2017-10-13T05:11:40.495Z,17.93
2017-10-13T05:14:08.154Z,23.30
2017-10-13T05:16:35.755Z,11.53
2017-10-13T05:19:03.414Z,12.73
2017-10-13T05:21:31.020Z,17.70
2017-10-13T05:23:58.682Z,14.90
2017-10-13T05:26:26.415Z,21.27
2017-10-13T05:28:54.021Z,10.97
2017-10-13T05:31:21.711Z,8.10
2017-10-13T05:33:49.419Z,14.57
2017-10-13T05:36:17.080Z,10.07
2017-10-13T05:38:44.694Z,17.40
2017-10-13T05:41:12.380Z,13.37
2017-10-13T05:43:40.115Z,10.00
2017-10-13T05:46:07.775Z,24.73
2017-10-13T05:48:35.431Z,20.97
2017-10-13T05:51:03.043Z,23.23
2017-10-13T05:53:30.716Z,10.47
2017-10-13T05:55:58.436Z,16.73
2017-10-13T05:58:26.046Z,10.40
2017-10-13T06:00:53.651Z,9.07
2017-10-13T06:03:21.300Z,10.03
2017-10-13T06:05:48.912Z,15.33
2017-10-13T06:08:16.523Z,10.03
2017-10-13T06:10:44.235Z,8.07
2017-10-13T06:13:11.858Z,20.07
2017-10-13T06:15:39.499Z,7.37
2017-10-13T06:18:07.206Z,7.73
2017-10-13T06:20:34.883Z,7.03
2017-10-13T06:23:02.483Z,15.10
2017-10-13T06:25:30.259Z,22.47
2017-10-13T06:27:57.920Z,7.10
2017-10-13T06:30:25.588Z,9.30
2017-10-13T06:32:53.360Z,12.83
2017-10-13T06:35:21.068Z,18.30
2017-10-13T06:37:48.728Z,14.70
2017-10-13T06:40:16.493Z,12.53
2017-10-13T06:42:44.095Z,8.03
2017-10-13T06:45:11.700Z,18.47
2017-10-13T06:47:39.360Z,15.47
2017-10-13T06:50:06.967Z,13.07
2017-10-13T06:52:34.635Z,33.73
2017-10-13T06:55:02.363Z,21.77
2017-10-13T06:57:29.979Z,25.07
2017-10-13T06:59:57.651Z,39.13
2017-10-13T07:02:25.327Z,23.20
2017-10-13T07:04:52.934Z,14.67
2017-10-13T07:07:20.539Z,20.43
2017-10-13T07:09:48.291Z,18.73
2017-10-13T07:12:15.912Z,15.40
2017-10-13T07:14:43.523Z,24.73
2017-10-13T07:17:11.174Z,15.13
2017-10-13T07:19:38.770Z,29.50
2017-10-13T07:22:06.445Z,20.70
2017-10-13T07:24:34.164Z,12.77
2017-10-13T07:27:01.823Z,35.00
2017-10-13T07:29:29.479Z,20.80
2017-10-13T07:31:57.204Z,25.63
2017-10-13T07:34:24.919Z,18.43
2017-10-13T07:36:52.515Z,29.63
2017-10-13T07:39:20.171Z,20.20
2017-10-13T07:41:47.775Z,41.80
2017-10-13T07:44:15.381Z,14.53
2017-10-13T07:46:43.035Z,17.17
2017-10-13T07:49:10.641Z,19.37
2017-10-13T07:51:38.297Z,18.37
2017-10-13T07:54:05.951Z,17.40
2017-10-13T07:56:33.617Z,10.03
2017-10-13T07:59:01.296Z,24.00
2017-10-13T08:01:29.005Z,10.50
2017-10-13T08:03:56.603Z,17.37
2017-10-13T08:06:24.264Z,21.73
2017-10-13T08:08:51.916Z,14.93
2017-10-13T08:11:19.579Z,13.37
2017-10-13T08:13:47.191Z,16.87
2017-10-13T08:16:14.849Z,14.63
2017-10-13T08:18:42.512Z,13.77
2017-10-13T08:21:10.168Z,17.40
2017-10-13T08:23:37.822Z,13.00
2017-10-13T08:26:05.461Z,9.30
2017-10-13T08:28:33.156Z,12.80
2017-10-13T08:31:00.835Z,12.80
2017-10-13T08:33:28.481Z,18.23
2017-10-13T08:35:56.090Z,13.90
2017-10-13T08:38:23.743Z,14.10
2017-10-13T08:40:51.339Z,8.83
2017-10-13T08:43:18.951Z,23.50
2017-10-13T08:45:46.665Z,9.93
2017-10-13T08:48:14.268Z,8.13
2017-10-13T08:50:41.927Z,13.80
2017-10-13T08:53:09.579Z,7.73
2017-10-13T08:55:37.290Z,9.63
2017-10-13T08:58:04.963Z,11.93
2017-10-13T09:00:32.671Z,12.00
2017-10-13T09:03:00.327Z,8.57
2017-10-13T09:05:27.979Z,12.07
2017-10-13T09:07:55.768Z,11.10
2017-10-13T09:10:23.489Z,16.50
2017-10-13T09:12:51.153Z,16.40
2017-10-13T09:15:18.844Z,8.03
2017-10-13T09:17:46.500Z,9.90
2017-10-13T09:20:14.095Z,7.50
2017-10-13T09:22:47.338Z,7.13
2017-10-13T09:25:14.944Z,12.83
2017-10-13T09:27:42.547Z,9.10
2017-10-13T09:30:10.231Z,10.50
2017-10-13T09:32:37.834Z,9.27
2017-10-13T09:35:05.449Z,5.97
2017-10-13T09:37:33.184Z,12.17
2017-10-13T09:40:00.853Z,12.57
2017-10-13T09:42:28.460Z,7.33
2017-10-13T09:44:56.167Z,14.33
2017-10-13T09:47:23.837Z,8.03
2017-10-13T09:49:51.491Z,9.00
2017-10-13T09:52:19.148Z,9.27
2017-10-13T09:54:46.758Z,13.17
2017-10-13T09:57:14.419Z,8.43
2017-10-13T09:59:42.063Z,8.33
2017-10-13T10:02:09.674Z,15.13
2017-10-13T10:04:37.337Z,14.27
2017-10-13T10:07:05.063Z,21.47
2017-10-13T10:09:32.659Z,8.80
2017-10-13T10:12:00.319Z,16.80
2017-10-13T10:14:28.027Z,8.87
2017-10-13T10:16:55.622Z,7.30
2017-10-13T10:19:23.289Z,12.13
2017-10-13T10:21:50.996Z,7.07
2017-10-13T10:24:18.596Z,6.57
2017-10-13T10:26:46.198Z,19.30
2017-10-13T10:29:13.907Z,8.37
2017-10-13T10:31:41.516Z,14.33
2017-10-13T10:34:09.168Z,6.80
2017-10-13T10:36:36.819Z,13.10
2017-10-13T10:39:04.587Z,8.07
2017-10-13T10:41:32.197Z,9.10
2017-10-13T10:43:59.923Z,7.57
2017-10-13T10:46:27.540Z,16.77
2017-10-13T10:48:55.158Z,16.57
2017-10-13T10:51:22.882Z,10.50
2017-10-13T10:53:50.482Z,4.93
2017-10-13T10:56:18.152Z,4.83
2017-10-13T10:58:45.797Z,5.33
2017-10-13T11:01:13.497Z,10.77
2017-10-13T11:03:41.233Z,10.23
2017-10-13T11:06:08.971Z,7.80
2017-10-13T11:08:36.580Z,11.90
2017-10-13T11:11:04.249Z,6.80
2017-10-13T11:13:31.916Z,6.87
2017-10-13T11:15:59.588Z,12.67
2017-10-13T11:18:27.198Z,5.43
2017-10-13T11:20:54.935Z,18.43
2017-10-13T11:23:22.536Z,7.47
2017-10-13T11:25:50.197Z,4.50
2017-10-13T11:28:17.863Z,18.57
2017-10-13T11:30:45.531Z,7.00
2017-10-13T11:33:13.243Z,8.07
2017-10-13T11:35:41.018Z,7.10
2017-10-13T11:38:08.686Z,5.60
2017-10-13T11:40:36.291Z,6.70
2017-10-13T11:43:04.032Z,9.67
2017-10-13T11:45:31.705Z,10.97
2017-10-13T11:47:59.396Z,10.00
2017-10-13T11:50:27.040Z,7.60
2017-10-13T11:52:54.772Z,3.87
2017-10-13T11:55:22.423Z,7.33
2017-10-13T11:57:50.123Z,3.63
2017-10-13T12:00:17.799Z,10.70
2017-10-13T12:02:45.459Z,5.70
2017-10-13T12:05:13.176Z,11.07
2017-10-13T12:07:40.772Z,9.23
2017-10-13T12:10:08.375Z,6.37
2017-10-13T12:12:36.051Z,13.17
2017-10-13T12:15:03.716Z,11.33
2017-10-13T12:17:31.324Z,11.37
2017-10-13T12:19:59.047Z,10.00
2017-10-13T12:22:26.652Z,10.20
2017-10-13T12:24:54.321Z,6.30
2017-10-13T12:27:22.035Z,11.67
2017-10-13T12:29:49.638Z,7.20
2017-10-13T12:32:17.299Z,9.27
2017-10-13T12:34:45.028Z,8.00
2017-10-13T12:37:12.628Z,12.63
2017-10-13T12:39:40.233Z,10.47
2017-10-13T12:42:07.891Z,8.20
2017-10-13T12:44:35.556Z,7.70
2017-10-13T12:47:03.234Z,10.40
2017-10-13T12:49:30.972Z,19.17
2017-10-13T12:51:58.631Z,12.40
2017-10-13T12:54:26.352Z,20.40
2017-10-13T12:56:54.020Z,14.40
2017-10-13T12:59:21.626Z,15.13
2017-10-13T13:01:49.233Z,21.83
2017-10-13T13:04:16.902Z,14.63
2017-10-13T13:06:44.580Z,10.30
2017-10-13T13:09:12.199Z,10.00
2017-10-13T13:11:39.936Z,10.33
2017-10-13T13:14:07.636Z,16.45
2017-10-13T13:16:35.245Z,7.17
2017-10-13T13:19:02.955Z,9.50
2017-10-13T13:21:30.564Z,9.00
2017-10-13T13:23:58.177Z,7.53
2017-10-13T13:26:25.856Z,10.43
2017-10-13T13:28:53.467Z,10.20
2017-10-13T13:31:21.071Z,6.13
2017-10-13T13:33:48.731Z,8.00
2017-10-13T13:36:16.369Z,6.90
2017-10-13T13:38:43.981Z,11.83
2017-10-13T13:41:11.696Z,9.00
2017-10-13T13:43:39.372Z,11.50
2017-10-13T13:46:06.969Z,6.43
2017-10-13T13:48:34.629Z,6.50
2017-10-13T13:51:02.234Z,8.07
2017-10-13T13:53:29.848Z,7.60
2017-10-13T13:55:57.499Z,6.10
2017-10-13T13:58:25.099Z,6.40
2017-10-13T14:00:52.711Z,14.47
2017-10-13T14:03:20.428Z,6.73
2017-10-13T14:05:48.095Z,14.30
2017-10-13T14:08:15.817Z,8.87
2017-10-13T14:10:43.479Z,8.60
2017-10-13T14:13:11.136Z,6.93
2017-10-13T14:15:38.812Z,10.63
2017-10-13T14:18:06.495Z,12.00
2017-10-13T14:20:34.103Z,15.67
2017-10-13T14:23:01.825Z,5.70
2017-10-13T14:25:29.609Z,25.03
2017-10-13T14:27:57.291Z,12.40
2017-10-13T14:30:24.896Z,9.13
2017-10-13T14:32:52.603Z,7.97
2017-10-13T14:35:20.351Z,8.83
2017-10-13T14:38:11.454Z,10.30
2017-10-13T14:40:39.111Z,23.03
2017-10-13T14:43:06.772Z,15.03
2017-10-13T14:45:34.516Z,4.37
2017-10-13T14:48:02.183Z,8.00
2017-10-13T14:50:29.899Z,6.47
2017-10-13T14:52:57.560Z,8.67
2017-10-13T14:55:25.284Z,16.00
2017-10-13T14:57:52.949Z,12.10
2017-10-13T15:00:20.663Z,6.93
2017-10-13T15:02:48.376Z,11.70
2017-10-13T15:05:16.035Z,12.20
2017-10-13T15:07:43.691Z,10.43
2017-10-13T15:10:11.347Z,9.53
2017-10-13T15:12:38.946Z,15.10
2017-10-13T15:15:06.606Z,16.03
2017-10-13T15:17:34.215Z,14.20
2017-10-13T15:20:01.829Z,9.70
2017-10-13T15:22:29.539Z,7.30
2017-10-13T15:25:02.808Z,12.70
2017-10-13T15:30:38.188Z,11.13
2017-10-13T15:33:11.528Z,11.80
2017-10-13T15:35:44.528Z,10.30
2017-10-13T15:38:17.880Z,14.30
2017-10-13T15:40:50.926Z,10.20
2017-10-13T15:43:24.202Z,7.90
2017-10-13T15:45:57.345Z,11.10
2017-10-13T15:48:25.836Z,9.07
2017-10-13T15:50:58.903Z,9.20
2017-10-13T15:53:26.611Z,8.17
2017-10-13T15:55:54.207Z,7.50
2017-10-13T15:58:21.807Z,9.43
2017-10-13T16:00:49.459Z,10.23
2017-10-13T16:03:17.118Z,12.67
2017-10-13T16:05:44.729Z,6.10
2017-10-13T16:08:12.399Z,8.17
2017-10-13T16:10:39.999Z,4.77
2017-10-13T16:13:07.599Z,12.80
2017-10-13T16:15:35.260Z,15.23
2017-10-13T16:18:02.867Z,12.70
2017-10-13T16:20:30.468Z,13.13
2017-10-13T16:22:58.136Z,10.37
2017-10-13T16:25:25.728Z,6.90
2017-10-13T16:27:53.331Z,13.10
2017-10-13T16:30:20.976Z,8.90
2017-10-13T16:32:48.593Z,13.50
2017-10-13T16:35:16.204Z,12.40
2017-10-13T16:37:43.855Z,11.60
2017-10-13T16:40:11.526Z,10.27
2017-10-13T16:42:39.132Z,13.20
2017-10-13T16:45:06.847Z,19.20
2017-10-13T16:47:34.582Z,15.40
2017-10-13T16:50:02.240Z,17.87
2017-10-13T16:52:29.962Z,11.90
2017-10-13T16:54:57.563Z,9.93
2017-10-13T16:57:25.225Z,13.90
2017-10-13T16:59:52.890Z,22.00
2017-10-13T17:02:20.492Z,9.17
2017-10-13T17:04:48.092Z,15.57
2017-10-13T17:07:15.740Z,6.00
2017-10-13T17:09:43.404Z,9.13
2017-10-13T17:12:11.068Z,6.63
2017-10-13T17:14:38.779Z,10.40
2017-10-13T17:17:06.444Z,7.17
2017-10-13T17:19:34.081Z,8.63
2017-10-13T17:22:01.743Z,5.27
2017-10-13T17:24:29.343Z,7.43
2017-10-13T17:26:56.947Z,7.40
2017-10-13T17:29:24.598Z,7.13
2017-10-13T17:31:52.263Z,10.23
2017-10-13T17:34:19.923Z,8.83
2017-10-13T17:36:47.641Z,5.70
2017-10-13T17:39:15.299Z,8.40
2017-10-13T17:41:42.894Z,6.53
2017-10-13T17:44:10.628Z,10.57
2017-10-13T17:46:38.227Z,7.30
2017-10-13T17:49:05.895Z,8.43
2017-10-13T17:51:33.579Z,13.90
2017-10-13T17:54:01.197Z,11.50
2017-10-13T17:56:28.816Z,11.00
2017-10-13T17:58:56.536Z,8.50
2017-10-13T18:01:24.208Z,9.43
2017-10-13T18:03:51.812Z,9.47
2017-10-13T18:06:19.478Z,8.57
2017-10-13T18:08:47.087Z,10.03
2017-10-13T18:11:14.697Z,8.13
2017-10-13T18:13:42.354Z,10.50
2017-10-13T18:16:10.028Z,14.10
2017-10-13T18:18:37.700Z,6.83
2017-10-13T18:21:05.358Z,10.03
2017-10-13T18:23:32.963Z,9.50
2017-10-13T18:26:00.569Z,12.17
2017-10-13T18:28:28.249Z,9.53
2017-10-13T18:30:55.916Z,9.63
2017-10-13T18:33:23.581Z,19.03
2017-10-13T18:35:51.237Z,8.40
2017-10-13T18:38:18.849Z,14.97
2017-10-13T18:40:46.519Z,16.97
2017-10-13T18:43:14.208Z,13.40
2017-10-13T18:45:41.819Z,13.73
2017-10-13T18:48:09.428Z,7.27
2017-10-13T18:50:37.105Z,6.90
2017-10-13T18:53:04.723Z,14.73
2017-10-13T18:55:32.339Z,23.07
2017-10-13T18:57:59.991Z,11.73
2017-10-13T19:00:27.655Z,9.93
2017-10-13T19:02:55.403Z,7.73
2017-10-13T19:05:23.122Z,12.80
2017-10-13T19:07:50.734Z,7.67
2017-10-13T19:10:18.407Z,9.10
2017-10-13T19:12:46.108Z,4.33
2017-10-13T19:15:13.776Z,14.90
2017-10-13T19:17:41.379Z,9.50
2017-10-13T19:20:09.148Z,6.43
2017-10-13T19:22:36.885Z,10.27
2017-10-13T19:25:04.554Z,11.33
2017-10-13T19:27:32.251Z,8.13
2017-10-13T19:29:59.912Z,13.47
2017-10-13T19:32:27.575Z,8.43
2017-10-13T19:34:55.254Z,7.70
2017-10-13T19:37:22.859Z,5.50
2017-10-13T19:39:50.532Z,5.57
2017-10-13T19:42:18.244Z,10.60
2017-10-13T19:44:45.845Z,7.80
2017-10-13T19:47:13.500Z,7.47
2017-10-13T19:49:41.155Z,7.80
2017-10-13T19:52:08.759Z,6.50
2017-10-13T19:54:36.424Z,5.77
2017-10-13T19:57:04.082Z,7.70
2017-10-13T19:59:31.707Z,13.47
2017-10-13T20:01:59.303Z,9.00
2017-10-13T20:04:26.955Z,8.70
2017-10-13T20:06:54.667Z,16.13
2017-10-13T20:09:22.263Z,8.43
2017-10-13T20:11:49.972Z,9.50
2017-10-13T20:14:17.624Z,9.80
2017-10-13T20:16:45.279Z,5.47
2017-10-13T20:19:12.992Z,10.40
2017-10-13T20:21:40.661Z,12.43
2017-10-13T20:24:08.265Z,8.40
2017-10-13T20:26:35.948Z,7.40
2017-10-13T20:29:03.608Z,14.90
2017-10-13T20:31:31.215Z,14.43
2017-10-13T20:33:58.868Z,9.93
2017-10-13T20:36:26.481Z,9.50
2017-10-13T20:38:54.152Z,8.53
2017-10-13T20:41:21.855Z,9.70
2017-10-13T20:43:49.455Z,5.80
2017-10-13T20:46:17.061Z,11.00
2017-10-13T20:48:44.708Z,4.33
2017-10-13T20:51:12.311Z,18.70
2017-10-13T20:53:39.916Z,10.30
2017-10-13T20:56:07.626Z,8.20
2017-10-13T20:58:35.295Z,12.77
2017-10-13T21:01:02.903Z,17.70
2017-10-13T21:03:30.691Z,15.50
2017-10-13T21:05:58.299Z,7.07
2017-10-13T21:08:25.960Z,15.43
2017-10-13T21:10:53.616Z,12.63
2017-10-13T21:13:21.223Z,9.73
2017-10-13T21:15:48.823Z,8.80
2017-10-13T21:18:16.523Z,9.77
2017-10-13T21:20:44.119Z,5.07
2017-10-13T21:23:11.783Z,9.00
2017-10-13T21:25:39.428Z,3.67
2017-10-13T21:28:07.026Z,6.50
2017-10-13T21:30:34.684Z,6.93
2017-10-13T21:33:02.364Z,7.17
2017-10-13T21:35:30.032Z,18.23
2017-10-13T21:37:57.638Z,12.23
2017-10-13T21:40:25.287Z,7.47
2017-10-13T21:42:52.981Z,8.47
2017-10-13T21:45:20.594Z,12.03
2017-10-13T21:47:48.250Z,5.30
2017-10-13T21:50:15.919Z,4.90
2017-10-13T21:52:43.516Z,3.83
2017-10-13T21:55:11.163Z,4.90
2017-10-13T21:57:38.764Z,20.80
2017-10-13T22:00:06.367Z,4.10
2017-10-13T22:02:34.011Z,5.47
2017-10-13T22:05:07.524Z,4.67
2017-10-13T22:07:35.255Z,9.63
2017-10-13T22:10:02.863Z,6.03
2017-10-13T22:12:30.583Z,10.53
2017-10-13T22:14:58.299Z,10.13
2017-10-13T22:17:25.958Z,6.60
2017-10-13T22:19:53.619Z,7.90
2017-10-13T22:22:21.272Z,5.63
2017-10-13T22:24:48.923Z,5.20
2017-10-13T22:27:16.539Z,4.67
2017-10-13T22:29:44.192Z,16.33
2017-10-13T22:32:11.862Z,7.07
2017-10-13T22:34:39.472Z,4.40
2017-10-13T22:37:07.195Z,10.70
2017-10-13T22:39:34.808Z,9.07
2017-10-13T22:42:02.412Z,15.50
2017-10-13T22:44:30.211Z,5.67
2017-10-13T22:46:57.834Z,18.60
2017-10-13T22:49:25.497Z,5.37
2017-10-13T22:51:53.295Z,8.90
2017-10-13T22:54:20.969Z,11.67
2017-10-13T22:56:48.587Z,11.83
2017-10-13T22:59:16.329Z,15.47
2017-10-13T23:01:43.992Z,8.47
2017-10-13T23:04:11.673Z,5.83
2017-10-13T23:06:39.339Z,5.43
2017-10-13T23:09:06.942Z,5.50
2017-10-13T23:11:34.551Z,8.13
2017-10-13T23:14:02.217Z,9.17
2017-10-13T23:16:29.835Z,6.67
2017-10-13T23:18:57.498Z,9.30
2017-10-13T23:21:25.172Z,8.60
2017-10-13T23:23:52.776Z,8.33
2017-10-13T23:26:20.396Z,7.40
2017-10-13T23:28:48.076Z,6.70
2017-10-13T23:31:15.747Z,9.93
2017-10-13T23:33:43.375Z,10.97
2017-10-13T23:36:11.053Z,4.33
2017-10-13T23:38:38.723Z,10.70
2017-10-13T23:41:06.347Z,8.87
2017-10-13T23:43:34.076Z,14.73
2017-10-13T23:46:01.756Z,14.40
2017-10-13T23:48:29.363Z,5.97
2017-10-13T23:50:57.055Z,9.37
2017-10-13T23:53:24.662Z,7.10
2017-10-13T23:55:52.276Z,9.43
2017-10-13T23:58:19.944Z,8.00
